APL Illinois — 9HA2040 — position and weather

sailwx.info

Track history (hours):
 
Tides and Currents Weather Stations Pressure Air Temp Water Temp Dewpoint Dewpoint Depression Visibility Wind Speed Wind Dir Waves Ship Positions

APL Illinois

Last reported at 2018-Aug-12 17:06 UTC. Time now 2018-Aug-14 06:58 UTC.
Position N 26°19' W 091°30'.

Length 304 m; draft 10.5 m.

Type: Ship (hazmat cat A). MMSI: 249851000.

Date/timePositionNaut miles runAvg speedWind from/ knotsBaromVisibWave heightAir tempDewpointWater temp
2018-Aug-12 17:06N 26°19' W 091°30'16312.6
2018-Aug-12 04:06N 24°43' W 093°57'112.5
2018-Aug-12 03:59N 24°43' W 093°58'  
2018-Aug-09 23:48N 19°40' W 096°06'618.6
2018-Aug-09 23:30N 19°35' W 096°04'1018.8
2018-Aug-09 22:59N 19°26' W 096°00'918.8
2018-Aug-09 22:30N 19°17' W 095°57'817.2
2018-Aug-09 22:00N 19°11' W 096°03'4 8.8
2018-Aug-09 21:31N 19°12' W 096°08'0 0.5
2018-Aug-09 21:00N 19°13' W 096°08'0 0.0
2018-Aug-09 20:29N 19°13' W 096°08'0 0.0
2018-Aug-09 19:59N 19°13' W 096°08'0 0.0
2018-Aug-09 19:26N 19°13' W 096°08'0 0.0
2018-Aug-09 18:59N 19°13' W 096°08'0 0.0
2018-Aug-09 18:29N 19°13' W 096°08'0 0.0
2018-Aug-09 17:59N 19°13' W 096°08'0 0.0
2018-Aug-09 17:29N 19°13' W 096°08'0 0.0
2018-Aug-09 16:56N 19°13' W 096°08'0 0.0
2018-Aug-09 16:29N 19°13' W 096°08'0 0.0
2018-Aug-09 15:59N 19°13' W 096°08'0 0.0
2018-Aug-09 15:29N 19°13' W 096°08'0 0.0
2018-Aug-09 14:56N 19°13' W 096°08'0 0.0
2018-Aug-09 14:26N 19°13' W 096°08'0 0.0
2018-Aug-09 13:59N 19°13' W 096°08'0 0.0
2018-Aug-09 13:29N 19°13' W 096°08'0 0.0
2018-Aug-09 12:59N 19°13' W 096°08'0 0.0
2018-Aug-09 12:26N 19°13' W 096°08'0 0.0
2018-Aug-09 11:59N 19°13' W 096°08'0 0.0
2018-Aug-09 11:29N 19°13' W 096°08'0 0.0
2018-Aug-09 10:59N 19°13' W 096°08'0 0.0
2018-Aug-09 10:29N 19°13' W 096°08'0 0.0
2018-Aug-09 09:59N 19°13' W 096°08'0 0.0
2018-Aug-09 09:29N 19°13' W 096°08'0 0.0
2018-Aug-09 08:59N 19°13' W 096°08'0 0.0
2018-Aug-09 08:29N 19°13' W 096°08'0 0.0
2018-Aug-09 07:59N 19°13' W 096°08'0 0.0
2018-Aug-09 07:26N 19°13' W 096°08'0 0.0
2018-Aug-09 06:59N 19°13' W 096°08'0 0.0
2018-Aug-09 06:29N 19°13' W 096°08'0 0.0
2018-Aug-09 05:56N 19°13' W 096°08'0 0.0
2018-Aug-09 05:26N 19°13' W 096°08'0 0.0
2018-Aug-09 04:59N 19°13' W 096°08'0 0.0
2018-Aug-09 04:26N 19°13' W 096°08'0 0.0
2018-Aug-09 03:56N 19°13' W 096°08'0 0.0
2018-Aug-09 03:26N 19°13' W 096°08'0 0.0
2018-Aug-09 02:59N 19°13' W 096°08'0 0.0
2018-Aug-09 02:29N 19°13' W 096°08'0 1.0
2018-Aug-09 02:00N 19°12' W 096°08'4 7.9
2018-Aug-09 01:30N 19°12' W 096°04'4 7.7
2018-Aug-09 01:00N 19°14' W 096°00'510.4
2018-Aug-09 00:30N 19°19' W 096°00'3 5.9
2018-Aug-09 00:00N 19°22' W 096°02'0 0.5
2018-Aug-08 23:29N 19°22' W 096°02'0 0.5
2018-Aug-08 22:59N 19°21' W 096°01'2 3.8
2018-Aug-08 22:30N 19°20' W 095°60'3 6.3
2018-Aug-08 22:00N 19°18' W 095°57'4 7.3
2018-Aug-08 21:30N 19°15' W 095°57'510.2
2018-Aug-08 21:00N 19°15' W 095°52'815.1
2018-Aug-08 20:30N 19°15' W 095°44'1120.2
2018-Aug-08 19:58N 19°21' W 095°34'95920.4
2018-Aug-06 21:01N 25°23' W 079°34'021.8
2018-Aug-06 21:00N 25°23' W 079°33'1221.2
2018-Aug-06 20:25N 25°35' W 079°30'920.9
2018-Aug-06 20:00N 25°43' W 079°27'1020.7
2018-Aug-06 19:30N 25°53' W 079°24'1120.8
2018-Aug-06 18:58N 26°04' W 079°19'337 8.0
2018-Aug-05 00:52N 31°37' W 080°13'719.6
2018-Aug-05 00:30N 31°43' W 080°18'1219.3
2018-Aug-04 23:53N 31°52' W 080°27'718.5
2018-Aug-04 23:30N 31°55' W 080°35'816.8
2018-Aug-04 23:00N 31°58' W 080°43'714.9
2018-Aug-04 22:30N 32°02' W 080°51'713.2
2018-Aug-04 22:00N 32°04' W 080°58'5 9.6
2018-Aug-04 21:30N 32°05' W 081°04'3 6.6
2018-Aug-04 21:00N 32°06' W 081°07'2 3.3
2018-Aug-04 20:30N 32°08' W 081°08'0 0.0
2018-Aug-04 19:55N 32°08' W 081°08'0 0.0
2018-Aug-04 19:25N 32°08' W 081°08'0 0.0
2018-Aug-04 18:49N 32°08' W 081°08'0 0.0
2018-Aug-04 18:25N 32°08' W 081°08'0 0.0
2018-Aug-04 17:55N 32°08' W 081°08'0 0.0
2018-Aug-04 17:19N 32°08' W 081°08'0 0.0
2018-Aug-04 16:55N 32°08' W 081°08'0 0.0
2018-Aug-04 16:25N 32°08' W 081°08'0 0.0
2018-Aug-04 15:49N 32°08' W 081°08'0 0.0
2018-Aug-04 15:25N 32°08' W 081°08'0 0.0
2018-Aug-04 14:49N 32°08' W 081°08'0 0.0
2018-Aug-04 14:13N 32°08' W 081°08'0 0.0
2018-Aug-04 13:55N 32°08' W 081°08'0 0.0
2018-Aug-04 13:25N 32°08' W 081°08'0 0.0
2018-Aug-04 12:55N 32°08' W 081°08'0 0.0
2018-Aug-04 12:25N 32°08' W 081°08'0 0.0
2018-Aug-04 11:55N 32°08' W 081°08'0 0.0
2018-Aug-04 11:25N 32°08' W 081°08'0 0.0
2018-Aug-04 10:55N 32°08' W 081°08'0 0.0
2018-Aug-04 10:25N 32°08' W 081°08'0 0.0
2018-Aug-04 09:55N 32°08' W 081°08'0 0.0
2018-Aug-04 09:25N 32°08' W 081°08'0 0.0
2018-Aug-04 08:55N 32°08' W 081°08'0 0.0
2018-Aug-04 08:25N 32°08' W 081°08'0 0.0
2018-Aug-04 07:55N 32°08' W 081°08'0 0.0
2018-Aug-04 07:30N 32°08' W 081°08'0 0.4
2018-Aug-04 07:01N 32°08' W 081°08'2 4.3
2018-Aug-04 06:30N 32°06' W 081°07'3 5.4
2018-Aug-04 06:00N 32°05' W 081°04'3 6.3
2018-Aug-04 05:30N 32°06' W 081°01'612.8
2018-Aug-04 05:00N 32°02' W 080°55'713.2
2018-Aug-04 04:30N 31°60' W 080°47'713.5
2018-Aug-04 04:00N 31°57' W 080°40'5 9.5
2018-Aug-04 03:30N 31°56' W 080°35'4 8.5
2018-Aug-04 03:00N 31°55' W 080°30'4 3.3
2018-Aug-04 01:50N 31°55' W 080°25'1 2.6
2018-Aug-04 01:30N 31°55' W 080°25'4 7.2
2018-Aug-04 00:59N 31°57' W 080°21'6 9.0
2018-Aug-04 00:20N 31°59' W 080°15'2 4.4
2018-Aug-03 23:56N 31°60' W 080°13'0 0.6
2018-Aug-03 23:26N 31°59' W 080°13'0 0.7
2018-Aug-03 22:59N 31°59' W 080°13'0 0.7
2018-Aug-03 22:30N 31°59' W 080°13'0 0.9
2018-Aug-03 21:57N 31°59' W 080°14'1 1.1
2018-Aug-03 21:27N 31°58' W 080°14'1 1.2
2018-Aug-03 20:19N 31°57' W 080°15'0 1.2
2018-Aug-03 19:58N 31°57' W 080°16'3 1.2
2018-Aug-03 17:26N 31°55' W 080°18'0 0.9
2018-Aug-03 16:59N 31°54' W 080°18'0 0.9
2018-Aug-03 16:30N 31°54' W 080°18'55 9.1
2018-Aug-03 10:29N 32°42' W 079°46'715.0
2018-Aug-03 10:00N 32°46' W 079°53'4 7.1
2018-Aug-03 09:31N 32°50' W 079°54'1 1.0
2018-Aug-03 08:52N 32°50' W 079°53'0 0.0
2018-Aug-03 08:29N 32°50' W 079°53'0 0.0
2018-Aug-03 07:59N 32°50' W 079°53'0 0.0
2018-Aug-03 07:29N 32°50' W 079°53'0 0.0
2018-Aug-03 06:59N 32°50' W 079°53'0 0.0
2018-Aug-03 06:29N 32°50' W 079°53'0 0.0
2018-Aug-03 05:59N 32°50' W 079°53'0 0.0
2018-Aug-03 05:26N 32°50' W 079°53'0 0.0
2018-Aug-03 04:59N 32°50' W 079°53'0 0.0
2018-Aug-03 04:29N 32°50' W 079°53'0 0.0
2018-Aug-03 03:17N 32°50' W 079°53'0 0.0
2018-Aug-03 02:59N 32°50' W 079°53'0 0.0
2018-Aug-03 02:29N 32°50' W 079°53'0 0.0
2018-Aug-03 01:56N 32°50' W 079°53'0 0.0
2018-Aug-03 01:29N 32°50' W 079°53'0 0.0
2018-Aug-03 00:59N 32°50' W 079°53'0 0.0
2018-Aug-03 00:29N 32°50' W 079°53'0 0.0
2018-Aug-02 23:59N 32°50' W 079°53'0 0.0
2018-Aug-02 23:29N 32°50' W 079°53'0 0.0
2018-Aug-02 22:59N 32°50' W 079°53'0 0.0
2018-Aug-02 22:29N 32°50' W 079°53'0 0.0
2018-Aug-02 21:59N 32°50' W 079°53'0 0.0
2018-Aug-02 21:29N 32°50' W 079°53'0 0.0
2018-Aug-02 20:59N 32°50' W 079°53'0 0.0
2018-Aug-02 20:29N 32°50' W 079°53'0 0.0
2018-Aug-02 19:50N 32°50' W 079°53'0 0.0
2018-Aug-02 18:17N 32°50' W 079°53'0 0.0
2018-Aug-02 17:53N 32°50' W 079°53'0 0.0
2018-Aug-02 17:11N 32°50' W 079°53'  
Track history (hours):
 
Tides and Currents Weather Stations Pressure Air Temp Water Temp Dewpoint Dewpoint Depression Visibility Wind Speed Wind Dir Waves Ship Positions

APL Illinois

Last reported at 2018-Aug-12 17:06 UTC. Time now 2018-Aug-14 06:58 UTC.
Position N 26°19' W 091°30'.

Length 304 m; draft 10.5 m.

Type: Ship (hazmat cat A). MMSI: 249851000.

Date/timePositionNaut miles runAvg speedWind from/ knotsBaromVisibWave heightAir tempDewpointWater temp
2018-Aug-12 17:06N 26°19' W 091°30'16312.6
2018-Aug-12 04:06N 24°43' W 093°57'112.5
2018-Aug-12 03:59N 24°43' W 093°58'  
2018-Aug-09 23:48N 19°40' W 096°06'618.6
2018-Aug-09 23:30N 19°35' W 096°04'1018.8
2018-Aug-09 22:59N 19°26' W 096°00'918.8
2018-Aug-09 22:30N 19°17' W 095°57'817.2
2018-Aug-09 22:00N 19°11' W 096°03'4 8.8
2018-Aug-09 21:31N 19°12' W 096°08'0 0.5
2018-Aug-09 21:00N 19°13' W 096°08'0 0.0
2018-Aug-09 20:29N 19°13' W 096°08'0 0.0
2018-Aug-09 19:59N 19°13' W 096°08'0 0.0
2018-Aug-09 19:26N 19°13' W 096°08'0 0.0
2018-Aug-09 18:59N 19°13' W 096°08'0 0.0
2018-Aug-09 18:29N 19°13' W 096°08'0 0.0
2018-Aug-09 17:59N 19°13' W 096°08'0 0.0
2018-Aug-09 17:29N 19°13' W 096°08'0 0.0
2018-Aug-09 16:56N 19°13' W 096°08'0 0.0
2018-Aug-09 16:29N 19°13' W 096°08'0 0.0
2018-Aug-09 15:59N 19°13' W 096°08'0 0.0
2018-Aug-09 15:29N 19°13' W 096°08'0 0.0
2018-Aug-09 14:56N 19°13' W 096°08'0 0.0
2018-Aug-09 14:26N 19°13' W 096°08'0 0.0
2018-Aug-09 13:59N 19°13' W 096°08'0 0.0
2018-Aug-09 13:29N 19°13' W 096°08'0 0.0
2018-Aug-09 12:59N 19°13' W 096°08'0 0.0
2018-Aug-09 12:26N 19°13' W 096°08'0 0.0
2018-Aug-09 11:59N 19°13' W 096°08'0 0.0
2018-Aug-09 11:29N 19°13' W 096°08'0 0.0
2018-Aug-09 10:59N 19°13' W 096°08'0 0.0
2018-Aug-09 10:29N 19°13' W 096°08'0 0.0
2018-Aug-09 09:59N 19°13' W 096°08'0 0.0
2018-Aug-09 09:29N 19°13' W 096°08'0 0.0
2018-Aug-09 08:59N 19°13' W 096°08'0 0.0
2018-Aug-09 08:29N 19°13' W 096°08'0 0.0
2018-Aug-09 07:59N 19°13' W 096°08'0 0.0
2018-Aug-09 07:26N 19°13' W 096°08'0 0.0
2018-Aug-09 06:59N 19°13' W 096°08'0 0.0
2018-Aug-09 06:29N 19°13' W 096°08'0 0.0
2018-Aug-09 05:56N 19°13' W 096°08'0 0.0
2018-Aug-09 05:26N 19°13' W 096°08'0 0.0
2018-Aug-09 04:59N 19°13' W 096°08'0 0.0
2018-Aug-09 04:26N 19°13' W 096°08'0 0.0
2018-Aug-09 03:56N 19°13' W 096°08'0 0.0
2018-Aug-09 03:26N 19°13' W 096°08'0 0.0
2018-Aug-09 02:59N 19°13' W 096°08'0 0.0
2018-Aug-09 02:29N 19°13' W 096°08'0 1.0
2018-Aug-09 02:00N 19°12' W 096°08'4 7.9
2018-Aug-09 01:30N 19°12' W 096°04'4 7.7
2018-Aug-09 01:00N 19°14' W 096°00'510.4
2018-Aug-09 00:30N 19°19' W 096°00'3 5.9
2018-Aug-09 00:00N 19°22' W 096°02'0 0.5
2018-Aug-08 23:29N 19°22' W 096°02'0 0.5
2018-Aug-08 22:59N 19°21' W 096°01'2 3.8
2018-Aug-08 22:30N 19°20' W 095°60'3 6.3
2018-Aug-08 22:00N 19°18' W 095°57'4 7.3
2018-Aug-08 21:30N 19°15' W 095°57'510.2
2018-Aug-08 21:00N 19°15' W 095°52'815.1
2018-Aug-08 20:30N 19°15' W 095°44'1120.2
2018-Aug-08 19:58N 19°21' W 095°34'95920.4
2018-Aug-06 21:01N 25°23' W 079°34'021.8
2018-Aug-06 21:00N 25°23' W 079°33'1221.2
2018-Aug-06 20:25N 25°35' W 079°30'920.9
2018-Aug-06 20:00N 25°43' W 079°27'1020.7
2018-Aug-06 19:30N 25°53' W 079°24'1120.8
2018-Aug-06 18:58N 26°04' W 079°19'337 8.0
2018-Aug-05 00:52N 31°37' W 080°13'719.6
2018-Aug-05 00:30N 31°43' W 080°18'1219.3
2018-Aug-04 23:53N 31°52' W 080°27'718.5
2018-Aug-04 23:30N 31°55' W 080°35'816.8
2018-Aug-04 23:00N 31°58' W 080°43'714.9
2018-Aug-04 22:30N 32°02' W 080°51'713.2
2018-Aug-04 22:00N 32°04' W 080°58'5 9.6
2018-Aug-04 21:30N 32°05' W 081°04'3 6.6
2018-Aug-04 21:00N 32°06' W 081°07'2 3.3
2018-Aug-04 20:30N 32°08' W 081°08'0 0.0
2018-Aug-04 19:55N 32°08' W 081°08'0 0.0
2018-Aug-04 19:25N 32°08' W 081°08'0 0.0
2018-Aug-04 18:49N 32°08' W 081°08'0 0.0
2018-Aug-04 18:25N 32°08' W 081°08'0 0.0
2018-Aug-04 17:55N 32°08' W 081°08'0 0.0
2018-Aug-04 17:19N 32°08' W 081°08'0 0.0
2018-Aug-04 16:55N 32°08' W 081°08'0 0.0
2018-Aug-04 16:25N 32°08' W 081°08'0 0.0
2018-Aug-04 15:49N 32°08' W 081°08'0 0.0
2018-Aug-04 15:25N 32°08' W 081°08'0 0.0
2018-Aug-04 14:49N 32°08' W 081°08'0 0.0
2018-Aug-04 14:13N 32°08' W 081°08'0 0.0
2018-Aug-04 13:55N 32°08' W 081°08'0 0.0
2018-Aug-04 13:25N 32°08' W 081°08'0 0.0
2018-Aug-04 12:55N 32°08' W 081°08'0 0.0
2018-Aug-04 12:25N 32°08' W 081°08'0 0.0
2018-Aug-04 11:55N 32°08' W 081°08'0 0.0
2018-Aug-04 11:25N 32°08' W 081°08'0 0.0
2018-Aug-04 10:55N 32°08' W 081°08'0 0.0
2018-Aug-04 10:25N 32°08' W 081°08'0 0.0
2018-Aug-04 09:55N 32°08' W 081°08'0 0.0
2018-Aug-04 09:25N 32°08' W 081°08'0 0.0
2018-Aug-04 08:55N 32°08' W 081°08'0 0.0
2018-Aug-04 08:25N 32°08' W 081°08'0 0.0
2018-Aug-04 07:55N 32°08' W 081°08'0 0.0
2018-Aug-04 07:30N 32°08' W 081°08'0 0.4
2018-Aug-04 07:01N 32°08' W 081°08'2 4.3
2018-Aug-04 06:30N 32°06' W 081°07'3 5.4
2018-Aug-04 06:00N 32°05' W 081°04'3 6.3
2018-Aug-04 05:30N 32°06' W 081°01'612.8
2018-Aug-04 05:00N 32°02' W 080°55'713.2
2018-Aug-04 04:30N 31°60' W 080°47'713.5
2018-Aug-04 04:00N 31°57' W 080°40'5 9.5
2018-Aug-04 03:30N 31°56' W 080°35'4 8.5
2018-Aug-04 03:00N 31°55' W 080°30'4 3.3
2018-Aug-04 01:50N 31°55' W 080°25'1 2.6
2018-Aug-04 01:30N 31°55' W 080°25'4 7.2
2018-Aug-04 00:59N 31°57' W 080°21'6 9.0
2018-Aug-04 00:20N 31°59' W 080°15'2 4.4
2018-Aug-03 23:56N 31°60' W 080°13'0 0.6
2018-Aug-03 23:26N 31°59' W 080°13'0 0.7
2018-Aug-03 22:59N 31°59' W 080°13'0 0.7
2018-Aug-03 22:30N 31°59' W 080°13'0 0.9
2018-Aug-03 21:57N 31°59' W 080°14'1 1.1
2018-Aug-03 21:27N 31°58' W 080°14'1 1.2
2018-Aug-03 20:19N 31°57' W 080°15'0 1.2
2018-Aug-03 19:58N 31°57' W 080°16'3 1.2
2018-Aug-03 17:26N 31°55' W 080°18'0 0.9
2018-Aug-03 16:59N 31°54' W 080°18'0 0.9
2018-Aug-03 16:30N 31°54' W 080°18'55 9.1
2018-Aug-03 10:29N 32°42' W 079°46'715.0
2018-Aug-03 10:00N 32°46' W 079°53'4 7.1
2018-Aug-03 09:31N 32°50' W 079°54'1 1.0
2018-Aug-03 08:52N 32°50' W 079°53'0 0.0
2018-Aug-03 08:29N 32°50' W 079°53'0 0.0
2018-Aug-03 07:59N 32°50' W 079°53'0 0.0
2018-Aug-03 07:29N 32°50' W 079°53'0 0.0
2018-Aug-03 06:59N 32°50' W 079°53'0 0.0
2018-Aug-03 06:29N 32°50' W 079°53'0 0.0
2018-Aug-03 05:59N 32°50' W 079°53'0 0.0
2018-Aug-03 05:26N 32°50' W 079°53'0 0.0
2018-Aug-03 04:59N 32°50' W 079°53'0 0.0
2018-Aug-03 04:29N 32°50' W 079°53'0 0.0
2018-Aug-03 03:17N 32°50' W 079°53'0 0.0
2018-Aug-03 02:59N 32°50' W 079°53'0 0.0
2018-Aug-03 02:29N 32°50' W 079°53'0 0.0
2018-Aug-03 01:56N 32°50' W 079°53'0 0.0
2018-Aug-03 01:29N 32°50' W 079°53'0 0.0
2018-Aug-03 00:59N 32°50' W 079°53'0 0.0
2018-Aug-03 00:29N 32°50' W 079°53'0 0.0
2018-Aug-02 23:59N 32°50' W 079°53'0 0.0
2018-Aug-02 23:29N 32°50' W 079°53'0 0.0
2018-Aug-02 22:59N 32°50' W 079°53'0 0.0
2018-Aug-02 22:29N 32°50' W 079°53'0 0.0
2018-Aug-02 21:59N 32°50' W 079°53'0 0.0
2018-Aug-02 21:29N 32°50' W 079°53'0 0.0
2018-Aug-02 20:59N 32°50' W 079°53'0 0.0
2018-Aug-02 20:29N 32°50' W 079°53'0 0.0
2018-Aug-02 19:50N 32°50' W 079°53'0 0.0
2018-Aug-02 18:17N 32°50' W 079°53'0 0.0
2018-Aug-02 17:53N 32°50' W 079°53'0 0.0
2018-Aug-02 17:11N 32°50' W 079°53'  

Dump ship's entire track history